Pagrindinis puslapis
METAR-TAF:

METAR-TAF

Oro uostai :

Tasiujaq, Kvebekas, Kanada

platuma: 58-40N, ilguma: 069-57W, Aukštis: 31 m

Dabartinis oras

Ataskaita buvo paskelbta 45 minutes, ne 20:00 UTC
Vėjas 14 kt iš Vakarų
Temperatūra -22°C
Drėgmė 70%
Slėgis 1002 hPa
Matomumas: 19.3 km
Su prošvaistėmis ne aukštis 4200 ft

METAR: CYTQ 202000Z 28014KT 12SM BKN042 M22/M26 A2960 RMK SC6 SLP030

Laikas: 15:45 (20:45 UTC)

Prognozė

Ataskaita buvo paskelbta 6 valandos ir 7 minutes, ne 14:38 UTC
Prognozė galioja nuo 20 metu 15 UTC su 20 metu 22 UTC
Vėjas 20 kt iš Vakarų
Matomumas: 10 km
Išsisklaidę debesys ne aukštis 4000 ft
Laikinai
nuo 20 metu 15 UTC su 20 metu 22 UTC
Matomumas: 6.4 km
Su prošvaistėmis ne aukštis 4000 ft
Sniego pustymas

TAF: CYTQ 201438Z 2015/2022 27020KT P6SM SCT040 TEMPO 2015/2022 4SM BLSN BKN040 RMK NXT FCST WILL BE ISSUED AT 211445Z

Orai ataskaitas ir orų prognozės (METAR, TAF).

turimą stotys yra geltonos ir raudonos taškus žemėlapyje.

Perkelti pele per norėdami pamatyti stoties vardą.

Tada spustelėkite, norėdami matyti oro stebėjimo ir prognozės.

Norėdami pakeisti žemėlapį: spustelėkite ant žalios mygtukų su juodo kryžiaus žemyn,; žalią mygtuką su brūkšneliu, jei norite nutolinti; arba žalių rodyklių gretimoms žemėlapius.


METAR-TAF: